sensor_id;sensor_type;location;lat;lon;timestamp;P1;durP1;ratioP1;P2;durP2;ratioP2
38023;SDS011;23834;48.080;11.682;2022-09-25T00:01:28;4.27;;;3.97;;
38023;SDS011;23834;48.080;11.682;2022-09-25T00:03:53;4.30;;;4.00;;
38023;SDS011;23834;48.080;11.682;2022-09-25T00:06:20;4.27;;;3.90;;
38023;SDS011;23834;48.080;11.682;2022-09-25T00:08:45;4.47;;;4.17;;
38023;SDS011;23834;48.080;11.682;2022-09-25T00:11:12;4.70;;;4.30;;
38023;SDS011;23834;48.080;11.682;2022-09-25T00:13:38;4.27;;;3.83;;
38023;SDS011;23834;48.080;11.682;2022-09-25T00:16:04;4.80;;;4.17;;
38023;SDS011;23834;48.080;11.682;2022-09-25T00:18:29;4.37;;;3.97;;
38023;SDS011;23834;48.080;11.682;2022-09-25T00:21:13;4.13;;;3.83;;
38023;SDS011;23834;48.080;11.682;2022-09-25T00:23:40;4.23;;;3.93;;
38023;SDS011;23834;48.080;11.682;2022-09-25T00:26:06;5.20;;;4.70;;
38023;SDS011;23834;48.080;11.682;2022-09-25T00:28:32;4.13;;;3.83;;
38023;SDS011;23834;48.080;11.682;2022-09-25T00:30:58;4.27;;;3.97;;
38023;SDS011;23834;48.080;11.682;2022-09-25T00:33:23;4.63;;;4.23;;
38023;SDS011;23834;48.080;11.682;2022-09-25T00:35:49;4.67;;;4.17;;
38023;SDS011;23834;48.080;11.682;2022-09-25T00:38:14;4.67;;;4.27;;
38023;SDS011;23834;48.080;11.682;2022-09-25T00:40:39;4.57;;;4.27;;
38023;SDS011;23834;48.080;11.682;2022-09-25T00:43:08;4.30;;;3.90;;
38023;SDS011;23834;48.080;11.682;2022-09-25T00:45:35;4.20;;;3.83;;
38023;SDS011;23834;48.080;11.682;2022-09-25T00:48:04;3.70;;;3.43;;
38023;SDS011;23834;48.080;11.682;2022-09-25T00:50:49;4.87;;;4.47;;
38023;SDS011;23834;48.080;11.682;2022-09-25T00:53:18;6.50;;;4.07;;
38023;SDS011;23834;48.080;11.682;2022-09-25T00:55:44;5.80;;;4.13;;
38023;SDS011;23834;48.080;11.682;2022-09-25T00:58:10;4.23;;;3.83;;
38023;SDS011;23834;48.080;11.682;2022-09-25T01:00:37;5.30;;;4.80;;
38023;SDS011;23834;48.080;11.682;2022-09-25T01:03:02;4.43;;;4.03;;
38023;SDS011;23834;48.080;11.682;2022-09-25T01:05:32;4.13;;;3.83;;
38023;SDS011;23834;48.080;11.682;2022-09-25T01:07:58;4.07;;;3.73;;
38023;SDS011;23834;48.080;11.682;2022-09-25T01:10:24;4.23;;;3.93;;
38023;SDS011;23834;48.080;11.682;2022-09-25T01:12:50;4.30;;;4.00;;
38023;SDS011;23834;48.080;11.682;2022-09-25T01:15:17;4.03;;;3.73;;
38023;SDS011;23834;48.080;11.682;2022-09-25T01:23:33;4.23;;;3.93;;
38023;SDS011;23834;48.080;11.682;2022-09-25T01:28:54;4.00;;;3.70;;
38023;SDS011;23834;48.080;11.682;2022-09-25T01:31:26;4.17;;;3.80;;
38023;SDS011;23834;48.080;11.682;2022-09-25T01:33:59;4.67;;;3.80;;
38023;SDS011;23834;48.080;11.682;2022-09-25T01:36:27;3.47;;;3.23;;
38023;SDS011;23834;48.080;11.682;2022-09-25T01:38:57;4.10;;;3.80;;
38023;SDS011;23834;48.080;11.682;2022-09-25T01:41:26;4.03;;;3.57;;
38023;SDS011;23834;48.080;11.682;2022-09-25T01:43:57;3.60;;;3.30;;
38023;SDS011;23834;48.080;11.682;2022-09-25T01:46:28;3.53;;;3.23;;
38023;SDS011;23834;48.080;11.682;2022-09-25T01:48:56;3.40;;;3.20;;
38023;SDS011;23834;48.080;11.682;2022-09-25T01:51:24;3.77;;;3.47;;
38023;SDS011;23834;48.080;11.682;2022-09-25T01:53:51;3.87;;;3.67;;
38023;SDS011;23834;48.080;11.682;2022-09-25T01:56:20;3.97;;;3.57;;
38023;SDS011;23834;48.080;11.682;2022-09-25T01:58:54;3.90;;;3.60;;
38023;SDS011;23834;48.080;11.682;2022-09-25T02:01:30;3.57;;;3.37;;
38023;SDS011;23834;48.080;11.682;2022-09-25T02:03:58;3.50;;;3.30;;
38023;SDS011;23834;48.080;11.682;2022-09-25T02:06:25;3.80;;;3.50;;
38023;SDS011;23834;48.080;11.682;2022-09-25T02:08:52;4.17;;;3.87;;
38023;SDS011;23834;48.080;11.682;2022-09-25T02:11:19;3.60;;;3.30;;
38023;SDS011;23834;48.080;11.682;2022-09-25T02:16:14;3.55;;;3.30;;
38023;SDS011;23834;48.080;11.682;2022-09-25T02:18:41;3.13;;;2.93;;
38023;SDS011;23834;48.080;11.682;2022-09-25T02:24:28;3.40;;;3.10;;
38023;SDS011;23834;48.080;11.682;2022-09-25T02:26:57;3.93;;;3.63;;
38023;SDS011;23834;48.080;11.682;2022-09-25T02:29:22;3.60;;;3.30;;
38023;SDS011;23834;48.080;11.682;2022-09-25T02:31:56;4.93;;;3.70;;
38023;SDS011;23834;48.080;11.682;2022-09-25T02:34:22;3.90;;;3.60;;
38023;SDS011;23834;48.080;11.682;2022-09-25T02:36:47;3.80;;;3.50;;
38023;SDS011;23834;48.080;11.682;2022-09-25T02:39:13;3.53;;;3.23;;
38023;SDS011;23834;48.080;11.682;2022-09-25T02:41:45;3.03;;;2.77;;
38023;SDS011;23834;48.080;11.682;2022-09-25T02:44:23;3.50;;;3.30;;
38023;SDS011;23834;48.080;11.682;2022-09-25T02:46:58;3.87;;;3.47;;
38023;SDS011;23834;48.080;11.682;2022-09-25T02:49:38;3.83;;;3.50;;
38023;SDS011;23834;48.080;11.682;2022-09-25T02:52:10;3.33;;;3.13;;
38023;SDS011;23834;48.080;11.682;2022-09-25T02:54:45;3.27;;;2.97;;
38023;SDS011;23834;48.080;11.682;2022-09-25T02:59:47;2.97;;;2.77;;
38023;SDS011;23834;48.080;11.682;2022-09-25T03:02:14;3.70;;;3.40;;
38023;SDS011;23834;48.080;11.682;2022-09-25T03:04:40;3.27;;;3.03;;
38023;SDS011;23834;48.080;11.682;2022-09-25T03:07:06;3.77;;;3.47;;
38023;SDS011;23834;48.080;11.682;2022-09-25T03:09:33;2.90;;;2.70;;
38023;SDS011;23834;48.080;11.682;2022-09-25T03:11:59;3.33;;;3.13;;
38023;SDS011;23834;48.080;11.682;2022-09-25T03:14:25;3.70;;;2.73;;
38023;SDS011;23834;48.080;11.682;2022-09-25T03:16:54;3.03;;;2.83;;
38023;SDS011;23834;48.080;11.682;2022-09-25T03:19:20;3.47;;;3.23;;
38023;SDS011;23834;48.080;11.682;2022-09-25T03:21:45;3.90;;;3.40;;
38023;SDS011;23834;48.080;11.682;2022-09-25T03:24:11;4.67;;;3.00;;
38023;SDS011;23834;48.080;11.682;2022-09-25T03:26:36;3.43;;;3.13;;
38023;SDS011;23834;48.080;11.682;2022-09-25T03:29:01;3.80;;;3.50;;
38023;SDS011;23834;48.080;11.682;2022-09-25T03:31:27;2.97;;;2.77;;
38023;SDS011;23834;48.080;11.682;2022-09-25T03:33:53;3.00;;;2.80;;
38023;SDS011;23834;48.080;11.682;2022-09-25T03:36:19;3.37;;;3.07;;
38023;SDS011;23834;48.080;11.682;2022-09-25T03:38:46;3.10;;;2.90;;
38023;SDS011;23834;48.080;11.682;2022-09-25T03:41:12;3.40;;;3.10;;
38023;SDS011;23834;48.080;11.682;2022-09-25T03:43:38;3.03;;;2.83;;
38023;SDS011;23834;48.080;11.682;2022-09-25T03:46:04;3.30;;;3.10;;
38023;SDS011;23834;48.080;11.682;2022-09-25T03:48:30;3.30;;;3.00;;
38023;SDS011;23834;48.080;11.682;2022-09-25T03:50:55;3.40;;;3.10;;
38023;SDS011;23834;48.080;11.682;2022-09-25T03:53:20;3.20;;;2.97;;
38023;SDS011;23834;48.080;11.682;2022-09-25T03:55:45;2.80;;;2.60;;
38023;SDS011;23834;48.080;11.682;2022-09-25T03:58:12;3.00;;;2.80;;
38023;SDS011;23834;48.080;11.682;2022-09-25T04:00:38;3.10;;;2.90;;
38023;SDS011;23834;48.080;11.682;2022-09-25T04:03:03;3.13;;;2.90;;
38023;SDS011;23834;48.080;11.682;2022-09-25T04:05:29;2.77;;;2.57;;
38023;SDS011;23834;48.080;11.682;2022-09-25T04:07:54;2.90;;;2.70;;
38023;SDS011;23834;48.080;11.682;2022-09-25T04:10:19;2.90;;;2.70;;
38023;SDS011;23834;48.080;11.682;2022-09-25T04:12:44;3.03;;;2.83;;
38023;SDS011;23834;48.080;11.682;2022-09-25T04:15:09;2.93;;;2.70;;
38023;SDS011;23834;48.080;11.682;2022-09-25T04:17:35;3.00;;;2.80;;
38023;SDS011;23834;48.080;11.682;2022-09-25T04:20:00;3.03;;;2.83;;
38023;SDS011;23834;48.080;11.682;2022-09-25T04:22:25;3.73;;;2.70;;
38023;SDS011;23834;48.080;11.682;2022-09-25T04:24:50;3.00;;;2.80;;
38023;SDS011;23834;48.080;11.682;2022-09-25T04:27:17;3.10;;;2.90;;
38023;SDS011;23834;48.080;11.682;2022-09-25T04:29:45;2.70;;;2.50;;
38023;SDS011;23834;48.080;11.682;2022-09-25T04:32:10;3.00;;;2.70;;
38023;SDS011;23834;48.080;11.682;2022-09-25T04:34:54;3.17;;;2.83;;
38023;SDS011;23834;48.080;11.682;2022-09-25T04:37:19;3.43;;;2.80;;
38023;SDS011;23834;48.080;11.682;2022-09-25T04:39:50;3.07;;;2.87;;
38023;SDS011;23834;48.080;11.682;2022-09-25T04:42:15;2.87;;;2.67;;
38023;SDS011;23834;48.080;11.682;2022-09-25T04:44:40;3.00;;;2.80;;
38023;SDS011;23834;48.080;11.682;2022-09-25T04:47:05;3.53;;;2.90;;
38023;SDS011;23834;48.080;11.682;2022-09-25T04:49:31;3.00;;;2.80;;
38023;SDS011;23834;48.080;11.682;2022-09-25T04:51:56;3.70;;;3.20;;
38023;SDS011;23834;48.080;11.682;2022-09-25T04:54:21;3.30;;;3.07;;
38023;SDS011;23834;48.080;11.682;2022-09-25T04:56:47;2.93;;;2.73;;
38023;SDS011;23834;48.080;11.682;2022-09-25T04:59:12;3.30;;;2.77;;
38023;SDS011;23834;48.080;11.682;2022-09-25T05:01:40;2.67;;;2.50;;
38023;SDS011;23834;48.080;11.682;2022-09-25T05:04:05;3.33;;;2.57;;
38023;SDS011;23834;48.080;11.682;2022-09-25T05:06:31;2.80;;;2.60;;
38023;SDS011;23834;48.080;11.682;2022-09-25T05:08:56;2.57;;;2.37;;
38023;SDS011;23834;48.080;11.682;2022-09-25T05:11:21;2.60;;;2.40;;
38023;SDS011;23834;48.080;11.682;2022-09-25T05:13:50;3.10;;;2.83;;
38023;SDS011;23834;48.080;11.682;2022-09-25T05:16:15;2.90;;;2.70;;
38023;SDS011;23834;48.080;11.682;2022-09-25T05:18:40;2.53;;;2.33;;
38023;SDS011;23834;48.080;11.682;2022-09-25T05:21:05;2.93;;;2.73;;
38023;SDS011;23834;48.080;11.682;2022-09-25T05:23:31;2.63;;;2.43;;
38023;SDS011;23834;48.080;11.682;2022-09-25T05:25:56;3.03;;;2.80;;
38023;SDS011;23834;48.080;11.682;2022-09-25T05:28:31;3.20;;;2.50;;
38023;SDS011;23834;48.080;11.682;2022-09-25T05:30:57;2.83;;;2.63;;
38023;SDS011;23834;48.080;11.682;2022-09-25T05:33:22;2.60;;;2.33;;
38023;SDS011;23834;48.080;11.682;2022-09-25T05:35:48;2.90;;;2.60;;
38023;SDS011;23834;48.080;11.682;2022-09-25T05:38:13;2.90;;;2.70;;
38023;SDS011;23834;48.080;11.682;2022-09-25T05:40:38;2.60;;;2.40;;
38023;SDS011;23834;48.080;11.682;2022-09-25T05:43:03;3.57;;;2.43;;
38023;SDS011;23834;48.080;11.682;2022-09-25T05:45:30;2.70;;;2.50;;
38023;SDS011;23834;48.080;11.682;2022-09-25T05:47:58;2.70;;;2.50;;
38023;SDS011;23834;48.080;11.682;2022-09-25T05:50:25;2.63;;;2.43;;
38023;SDS011;23834;48.080;11.682;2022-09-25T05:52:54;3.07;;;2.87;;
38023;SDS011;23834;48.080;11.682;2022-09-25T05:55:19;3.27;;;2.50;;
38023;SDS011;23834;48.080;11.682;2022-09-25T05:57:44;2.83;;;2.63;;
38023;SDS011;23834;48.080;11.682;2022-09-25T06:00:10;2.90;;;2.70;;
38023;SDS011;23834;48.080;11.682;2022-09-25T06:02:35;2.80;;;2.60;;
38023;SDS011;23834;48.080;11.682;2022-09-25T06:05:00;2.20;;;2.10;;
38023;SDS011;23834;48.080;11.682;2022-09-25T06:07:26;2.70;;;2.47;;
38023;SDS011;23834;48.080;11.682;2022-09-25T06:09:51;2.33;;;2.13;;
38023;SDS011;23834;48.080;11.682;2022-09-25T06:12:16;2.77;;;2.57;;
38023;SDS011;23834;48.080;11.682;2022-09-25T06:14:42;2.63;;;2.40;;
38023;SDS011;23834;48.080;11.682;2022-09-25T06:17:08;2.40;;;2.23;;
38023;SDS011;23834;48.080;11.682;2022-09-25T06:19:33;2.87;;;2.47;;
38023;SDS011;23834;48.080;11.682;2022-09-25T06:21:59;2.63;;;2.43;;
38023;SDS011;23834;48.080;11.682;2022-09-25T06:24:24;2.80;;;2.60;;
38023;SDS011;23834;48.080;11.682;2022-09-25T06:26:49;2.60;;;2.40;;
38023;SDS011;23834;48.080;11.682;2022-09-25T06:29:15;3.73;;;2.30;;
38023;SDS011;23834;48.080;11.682;2022-09-25T06:31:40;2.80;;;2.13;;
38023;SDS011;23834;48.080;11.682;2022-09-25T06:34:07;2.37;;;2.17;;
38023;SDS011;23834;48.080;11.682;2022-09-25T06:36:33;2.57;;;2.37;;
38023;SDS011;23834;48.080;11.682;2022-09-25T06:38:58;2.80;;;2.60;;
38023;SDS011;23834;48.080;11.682;2022-09-25T06:41:23;3.77;;;2.27;;
38023;SDS011;23834;48.080;11.682;2022-09-25T06:43:49;2.30;;;2.10;;
38023;SDS011;23834;48.080;11.682;2022-09-25T06:46:14;2.63;;;2.43;;
38023;SDS011;23834;48.080;11.682;2022-09-25T06:48:39;2.50;;;2.40;;
38023;SDS011;23834;48.080;11.682;2022-09-25T06:51:05;2.63;;;2.43;;
38023;SDS011;23834;48.080;11.682;2022-09-25T06:53:32;2.70;;;2.50;;
38023;SDS011;23834;48.080;11.682;2022-09-25T06:55:57;2.40;;;2.20;;
38023;SDS011;23834;48.080;11.682;2022-09-25T06:58:23;2.80;;;2.60;;
38023;SDS011;23834;48.080;11.682;2022-09-25T07:00:51;2.70;;;2.50;;
38023;SDS011;23834;48.080;11.682;2022-09-25T07:03:16;2.70;;;2.40;;
38023;SDS011;23834;48.080;11.682;2022-09-25T07:06:01;3.13;;;2.83;;
38023;SDS011;23834;48.080;11.682;2022-09-25T07:08:26;3.00;;;2.80;;
38023;SDS011;23834;48.080;11.682;2022-09-25T07:10:52;3.23;;;2.93;;
38023;SDS011;23834;48.080;11.682;2022-09-25T07:13:18;3.10;;;2.90;;
38023;SDS011;23834;48.080;11.682;2022-09-25T07:15:51;3.20;;;3.00;;
38023;SDS011;23834;48.080;11.682;2022-09-25T07:18:16;3.87;;;3.50;;
38023;SDS011;23834;48.080;11.682;2022-09-25T07:20:41;3.70;;;3.40;;
38023;SDS011;23834;48.080;11.682;2022-09-25T07:23:09;3.80;;;3.50;;
38023;SDS011;23834;48.080;11.682;2022-09-25T07:25:34;4.60;;;3.97;;
38023;SDS011;23834;48.080;11.682;2022-09-25T07:28:00;3.57;;;3.27;;
38023;SDS011;23834;48.080;11.682;2022-09-25T07:30:28;3.93;;;3.60;;
38023;SDS011;23834;48.080;11.682;2022-09-25T07:32:53;4.00;;;3.70;;
38023;SDS011;23834;48.080;11.682;2022-09-25T07:35:18;4.40;;;4.00;;
38023;SDS011;23834;48.080;11.682;2022-09-25T07:37:44;3.87;;;3.57;;
38023;SDS011;23834;48.080;11.682;2022-09-25T07:40:09;4.10;;;3.80;;
38023;SDS011;23834;48.080;11.682;2022-09-25T07:42:39;3.73;;;3.43;;
38023;SDS011;23834;48.080;11.682;2022-09-25T07:45:04;4.00;;;3.70;;
38023;SDS011;23834;48.080;11.682;2022-09-25T07:47:29;3.90;;;3.50;;
38023;SDS011;23834;48.080;11.682;2022-09-25T07:49:55;4.20;;;3.70;;
38023;SDS011;23834;48.080;11.682;2022-09-25T07:52:20;4.47;;;3.47;;
38023;SDS011;23834;48.080;11.682;2022-09-25T07:54:45;3.40;;;3.10;;
38023;SDS011;23834;48.080;11.682;2022-09-25T07:57:10;3.67;;;3.37;;
38023;SDS011;23834;48.080;11.682;2022-09-25T07:59:37;4.37;;;3.83;;
38023;SDS011;23834;48.080;11.682;2022-09-25T08:02:02;3.43;;;3.23;;
38023;SDS011;23834;48.080;11.682;2022-09-25T08:04:27;3.57;;;3.27;;
38023;SDS011;23834;48.080;11.682;2022-09-25T08:06:52;4.53;;;3.30;;
38023;SDS011;23834;48.080;11.682;2022-09-25T08:09:18;3.77;;;3.47;;
38023;SDS011;23834;48.080;11.682;2022-09-25T08:11:43;3.50;;;3.20;;
38023;SDS011;23834;48.080;11.682;2022-09-25T08:14:09;4.07;;;3.20;;
38023;SDS011;23834;48.080;11.682;2022-09-25T08:16:34;3.77;;;3.30;;
38023;SDS011;23834;48.080;11.682;2022-09-25T08:18:59;3.47;;;3.17;;
38023;SDS011;23834;48.080;11.682;2022-09-25T08:21:25;3.37;;;3.03;;
38023;SDS011;23834;48.080;11.682;2022-09-25T08:23:50;3.30;;;3.00;;
38023;SDS011;23834;48.080;11.682;2022-09-25T08:26:16;3.60;;;3.30;;
38023;SDS011;23834;48.080;11.682;2022-09-25T08:28:41;3.17;;;2.87;;
38023;SDS011;23834;48.080;11.682;2022-09-25T08:31:08;3.40;;;3.10;;
38023;SDS011;23834;48.080;11.682;2022-09-25T08:33:33;3.50;;;3.20;;
38023;SDS011;23834;48.080;11.682;2022-09-25T08:36:00;3.50;;;3.20;;
38023;SDS011;23834;48.080;11.682;2022-09-25T08:38:25;2.90;;;2.70;;
38023;SDS011;23834;48.080;11.682;2022-09-25T08:43:18;3.65;;;3.35;;
38023;SDS011;23834;48.080;11.682;2022-09-25T08:45:45;3.30;;;3.10;;
38023;SDS011;23834;48.080;11.682;2022-09-25T08:48:30;3.50;;;2.90;;
38023;SDS011;23834;48.080;11.682;2022-09-25T08:51:15;2.63;;;2.43;;
38023;SDS011;23834;48.080;11.682;2022-09-25T08:53:41;3.57;;;3.27;;
38023;SDS011;23834;48.080;11.682;2022-09-25T08:56:10;3.17;;;2.67;;
38023;SDS011;23834;48.080;11.682;2022-09-25T08:58:40;2.80;;;2.60;;
38023;SDS011;23834;48.080;11.682;2022-09-25T09:01:09;2.83;;;2.63;;
38023;SDS011;23834;48.080;11.682;2022-09-25T09:03:39;3.20;;;3.00;;
38023;SDS011;23834;48.080;11.682;2022-09-25T09:06:09;3.00;;;2.80;;
38023;SDS011;23834;48.080;11.682;2022-09-25T09:08:36;3.13;;;2.93;;
38023;SDS011;23834;48.080;11.682;2022-09-25T09:11:25;3.20;;;3.00;;
38023;SDS011;23834;48.080;11.682;2022-09-25T09:13:52;4.07;;;2.70;;
38023;SDS011;23834;48.080;11.682;2022-09-25T09:18:50;3.10;;;2.87;;
38023;SDS011;23834;48.080;11.682;2022-09-25T09:21:19;4.03;;;3.20;;
38023;SDS011;23834;48.080;11.682;2022-09-25T09:24:30;3.00;;;2.70;;
38023;SDS011;23834;48.080;11.682;2022-09-25T09:26:48;3.00;;;2.80;;
38023;SDS011;23834;48.080;11.682;2022-09-25T09:37:31;3.37;;;3.07;;
38023;SDS011;23834;48.080;11.682;2022-09-25T09:42:48;4.20;;;2.73;;
38023;SDS011;23834;48.080;11.682;2022-09-25T09:45:30;3.33;;;3.03;;
38023;SDS011;23834;48.080;11.682;2022-09-25T09:50:58;3.30;;;3.00;;
38023;SDS011;23834;48.080;11.682;2022-09-25T09:53:41;3.47;;;3.07;;
38023;SDS011;23834;48.080;11.682;2022-09-25T09:58:47;3.23;;;2.93;;
38023;SDS011;23834;48.080;11.682;2022-09-25T10:01:14;3.03;;;2.43;;
38023;SDS011;23834;48.080;11.682;2022-09-25T10:03:41;3.03;;;2.83;;
38023;SDS011;23834;48.080;11.682;2022-09-25T10:06:08;3.13;;;2.83;;
38023;SDS011;23834;48.080;11.682;2022-09-25T10:08:35;3.63;;;3.30;;
38023;SDS011;23834;48.080;11.682;2022-09-25T10:11:02;3.70;;;3.40;;
38023;SDS011;23834;48.080;11.682;2022-09-25T10:13:31;3.90;;;3.00;;
38023;SDS011;23834;48.080;11.682;2022-09-25T10:21:23;3.20;;;2.90;;
38023;SDS011;23834;48.080;11.682;2022-09-25T10:23:50;3.50;;;3.20;;
38023;SDS011;23834;48.080;11.682;2022-09-25T10:28:54;3.40;;;3.10;;
38023;SDS011;23834;48.080;11.682;2022-09-25T10:31:20;3.87;;;3.40;;
38023;SDS011;23834;48.080;11.682;2022-09-25T10:33:59;3.27;;;3.00;;
38023;SDS011;23834;48.080;11.682;2022-09-25T10:36:31;3.70;;;3.10;;
38023;SDS011;23834;48.080;11.682;2022-09-25T10:38:57;4.50;;;3.40;;
38023;SDS011;23834;48.080;11.682;2022-09-25T10:41:23;3.30;;;3.10;;
38023;SDS011;23834;48.080;11.682;2022-09-25T10:43:55;3.80;;;3.50;;
38023;SDS011;23834;48.080;11.682;2022-09-25T10:46:32;3.70;;;3.10;;
38023;SDS011;23834;48.080;11.682;2022-09-25T10:49:21;3.03;;;2.77;;
38023;SDS011;23834;48.080;11.682;2022-09-25T10:52:06;3.17;;;2.97;;
38023;SDS011;23834;48.080;11.682;2022-09-25T10:54:32;3.00;;;2.80;;
38023;SDS011;23834;48.080;11.682;2022-09-25T10:56:57;4.10;;;3.70;;
38023;SDS011;23834;48.080;11.682;2022-09-25T10:59:23;4.10;;;2.77;;
38023;SDS011;23834;48.080;11.682;2022-09-25T11:01:49;3.40;;;3.10;;
38023;SDS011;23834;48.080;11.682;2022-09-25T11:04:16;3.50;;;2.93;;
38023;SDS011;23834;48.080;11.682;2022-09-25T11:06:50;3.37;;;3.07;;
38023;SDS011;23834;48.080;11.682;2022-09-25T11:09:17;3.20;;;3.00;;
38023;SDS011;23834;48.080;11.682;2022-09-25T11:11:43;2.93;;;2.67;;
38023;SDS011;23834;48.080;11.682;2022-09-25T11:14:24;3.30;;;3.00;;
38023;SDS011;23834;48.080;11.682;2022-09-25T11:16:53;3.13;;;2.87;;
38023;SDS011;23834;48.080;11.682;2022-09-25T11:22:13;3.60;;;2.90;;
38023;SDS011;23834;48.080;11.682;2022-09-25T11:27:44;3.50;;;3.20;;
38023;SDS011;23834;48.080;11.682;2022-09-25T11:30:17;3.10;;;2.80;;
38023;SDS011;23834;48.080;11.682;2022-09-25T11:40:28;3.58;;;3.08;;
38023;SDS011;23834;48.080;11.682;2022-09-25T11:43:14;3.37;;;3.10;;
38023;SDS011;23834;48.080;11.682;2022-09-25T11:45:53;3.07;;;2.87;;
38023;SDS011;23834;48.080;11.682;2022-09-25T11:50:51;3.50;;;3.10;;
38023;SDS011;23834;48.080;11.682;2022-09-25T11:53:34;3.93;;;3.37;;
38023;SDS011;23834;48.080;11.682;2022-09-25T12:03:57;4.80;;;3.00;;
38023;SDS011;23834;48.080;11.682;2022-09-25T12:12:04;3.73;;;3.17;;
38023;SDS011;23834;48.080;11.682;2022-09-25T12:19:57;3.77;;;3.47;;
38023;SDS011;23834;48.080;11.682;2022-09-25T12:22:34;3.40;;;3.10;;
38023;SDS011;23834;48.080;11.682;2022-09-25T12:25:04;3.00;;;2.80;;
38023;SDS011;23834;48.080;11.682;2022-09-25T12:27:40;2.87;;;2.67;;
38023;SDS011;23834;48.080;11.682;2022-09-25T12:30:14;3.50;;;3.20;;
38023;SDS011;23834;48.080;11.682;2022-09-25T12:32:55;3.63;;;3.30;;
38023;SDS011;23834;48.080;11.682;2022-09-25T12:37:52;3.50;;;3.20;;
38023;SDS011;23834;48.080;11.682;2022-09-25T12:42:46;5.43;;;3.27;;
38023;SDS011;23834;48.080;11.682;2022-09-25T12:45:24;3.20;;;2.63;;
38023;SDS011;23834;48.080;11.682;2022-09-25T12:50:18;2.88;;;2.65;;
38023;SDS011;23834;48.080;11.682;2022-09-25T12:55:17;2.90;;;2.70;;
38023;SDS011;23834;48.080;11.682;2022-09-25T12:57:51;4.30;;;2.93;;
38023;SDS011;23834;48.080;11.682;2022-09-25T13:00:20;3.10;;;2.80;;
38023;SDS011;23834;48.080;11.682;2022-09-25T13:10:37;2.80;;;2.60;;
38023;SDS011;23834;48.080;11.682;2022-09-25T13:13:04;3.30;;;3.00;;
38023;SDS011;23834;48.080;11.682;2022-09-25T13:15:34;3.43;;;2.93;;
38023;SDS011;23834;48.080;11.682;2022-09-25T13:18:02;3.70;;;3.40;;
38023;SDS011;23834;48.080;11.682;2022-09-25T13:23:02;2.77;;;2.50;;
38023;SDS011;23834;48.080;11.682;2022-09-25T13:25:29;3.40;;;3.10;;
38023;SDS011;23834;48.080;11.682;2022-09-25T13:28:06;2.80;;;2.60;;
38023;SDS011;23834;48.080;11.682;2022-09-25T13:30:32;3.10;;;2.90;;
38023;SDS011;23834;48.080;11.682;2022-09-25T13:32:58;2.90;;;2.70;;
38023;SDS011;23834;48.080;11.682;2022-09-25T13:35:26;3.07;;;2.73;;
38023;SDS011;23834;48.080;11.682;2022-09-25T13:37:52;3.20;;;2.90;;
38023;SDS011;23834;48.080;11.682;2022-09-25T13:40:20;3.77;;;3.40;;
38023;SDS011;23834;48.080;11.682;2022-09-25T13:43:24;3.90;;;3.37;;
38023;SDS011;23834;48.080;11.682;2022-09-25T13:48:34;3.40;;;3.10;;
38023;SDS011;23834;48.080;11.682;2022-09-25T13:53:49;3.27;;;3.07;;
38023;SDS011;23834;48.080;11.682;2022-09-25T13:56:16;2.93;;;2.73;;
38023;SDS011;23834;48.080;11.682;2022-09-25T14:01:39;3.27;;;3.07;;
38023;SDS011;23834;48.080;11.682;2022-09-25T14:06:40;3.93;;;2.77;;
38023;SDS011;23834;48.080;11.682;2022-09-25T14:09:20;3.30;;;3.00;;
38023;SDS011;23834;48.080;11.682;2022-09-25T14:11:55;3.10;;;2.80;;
38023;SDS011;23834;48.080;11.682;2022-09-25T14:14:29;3.50;;;3.20;;
38023;SDS011;23834;48.080;11.682;2022-09-25T14:16:56;3.77;;;3.40;;
38023;SDS011;23834;48.080;11.682;2022-09-25T14:19:26;3.93;;;3.30;;
38023;SDS011;23834;48.080;11.682;2022-09-25T14:21:52;3.30;;;2.80;;
38023;SDS011;23834;48.080;11.682;2022-09-25T14:24:19;3.60;;;3.30;;
38023;SDS011;23834;48.080;11.682;2022-09-25T14:26:46;3.67;;;3.30;;
38023;SDS011;23834;48.080;11.682;2022-09-25T14:29:18;3.00;;;2.80;;
38023;SDS011;23834;48.080;11.682;2022-09-25T14:31:50;3.40;;;3.10;;
38023;SDS011;23834;48.080;11.682;2022-09-25T14:34:36;3.43;;;3.17;;
38023;SDS011;23834;48.080;11.682;2022-09-25T14:40:15;3.10;;;2.80;;
38023;SDS011;23834;48.080;11.682;2022-09-25T14:45:17;4.63;;;3.60;;
38023;SDS011;23834;48.080;11.682;2022-09-25T14:47:43;3.37;;;3.07;;
38023;SDS011;23834;48.080;11.682;2022-09-25T14:50:16;3.30;;;3.00;;
38023;SDS011;23834;48.080;11.682;2022-09-25T14:52:42;3.97;;;3.60;;
38023;SDS011;23834;48.080;11.682;2022-09-25T14:55:09;5.40;;;3.90;;
38023;SDS011;23834;48.080;11.682;2022-09-25T14:57:39;3.70;;;3.30;;
38023;SDS011;23834;48.080;11.682;2022-09-25T15:00:05;4.13;;;3.83;;
38023;SDS011;23834;48.080;11.682;2022-09-25T15:02:40;3.80;;;3.50;;
38023;SDS011;23834;48.080;11.682;2022-09-25T15:07:50;5.20;;;3.70;;
38023;SDS011;23834;48.080;11.682;2022-09-25T15:12:48;3.77;;;3.47;;
38023;SDS011;23834;48.080;11.682;2022-09-25T15:15:13;4.20;;;3.10;;
38023;SDS011;23834;48.080;11.682;2022-09-25T15:20:08;5.30;;;3.13;;
38023;SDS011;23834;48.080;11.682;2022-09-25T15:22:35;3.70;;;3.13;;
38023;SDS011;23834;48.080;11.682;2022-09-25T15:25:03;5.37;;;3.43;;
38023;SDS011;23834;48.080;11.682;2022-09-25T15:27:29;4.70;;;3.63;;
38023;SDS011;23834;48.080;11.682;2022-09-25T15:29:54;4.60;;;3.40;;
38023;SDS011;23834;48.080;11.682;2022-09-25T15:32:21;4.00;;;3.53;;
38023;SDS011;23834;48.080;11.682;2022-09-25T15:34:47;3.77;;;3.40;;
38023;SDS011;23834;48.080;11.682;2022-09-25T15:37:25;5.60;;;3.33;;
38023;SDS011;23834;48.080;11.682;2022-09-25T15:39:51;3.93;;;3.63;;
38023;SDS011;23834;48.080;11.682;2022-09-25T15:42:17;4.50;;;3.90;;
38023;SDS011;23834;48.080;11.682;2022-09-25T15:44:42;4.33;;;3.17;;
38023;SDS011;23834;48.080;11.682;2022-09-25T15:47:27;3.80;;;3.50;;
38023;SDS011;23834;48.080;11.682;2022-09-25T15:49:53;3.60;;;3.30;;
38023;SDS011;23834;48.080;11.682;2022-09-25T15:54:45;3.85;;;3.55;;
38023;SDS011;23834;48.080;11.682;2022-09-25T15:57:11;4.07;;;3.67;;
38023;SDS011;23834;48.080;11.682;2022-09-25T15:59:41;3.63;;;3.33;;
38023;SDS011;23834;48.080;11.682;2022-09-25T16:02:27;5.03;;;3.57;;
38023;SDS011;23834;48.080;11.682;2022-09-25T16:05:12;3.93;;;3.60;;
38023;SDS011;23834;48.080;11.682;2022-09-25T16:12:43;4.70;;;4.30;;
38023;SDS011;23834;48.080;11.682;2022-09-25T16:18:00;4.70;;;4.30;;
38023;SDS011;23834;48.080;11.682;2022-09-25T16:22:55;4.50;;;4.10;;
38023;SDS011;23834;48.080;11.682;2022-09-25T16:25:28;4.77;;;4.37;;
38023;SDS011;23834;48.080;11.682;2022-09-25T16:28:00;4.23;;;3.93;;
38023;SDS011;23834;48.080;11.682;2022-09-25T16:30:25;4.43;;;4.13;;
38023;SDS011;23834;48.080;11.682;2022-09-25T16:32:52;4.63;;;4.23;;
38023;SDS011;23834;48.080;11.682;2022-09-25T16:35:19;4.20;;;3.90;;
38023;SDS011;23834;48.080;11.682;2022-09-25T16:37:45;4.43;;;4.13;;
38023;SDS011;23834;48.080;11.682;2022-09-25T16:42:42;4.90;;;4.53;;
38023;SDS011;23834;48.080;11.682;2022-09-25T16:45:13;4.97;;;4.60;;
38023;SDS011;23834;48.080;11.682;2022-09-25T16:47:38;4.50;;;4.10;;
38023;SDS011;23834;48.080;11.682;2022-09-25T16:50:04;4.77;;;4.37;;
38023;SDS011;23834;48.080;11.682;2022-09-25T16:52:29;5.53;;;5.03;;
38023;SDS011;23834;48.080;11.682;2022-09-25T16:54:56;4.47;;;4.17;;
38023;SDS011;23834;48.080;11.682;2022-09-25T16:57:24;4.77;;;4.47;;
38023;SDS011;23834;48.080;11.682;2022-09-25T16:59:51;5.23;;;4.80;;
38023;SDS011;23834;48.080;11.682;2022-09-25T17:02:19;4.90;;;4.50;;